Time;durP1;ratioP1;P1;durP2;ratioP2;P2;SDS_P1;SDS_P2;PMS_P1;PMS_P2;Temp;Humidity;BMP_temperature;BMP_pressure;BME280_temperature;BME280_humidity;BME280_pressure;Samples;Min_cycle;Max_cycle;Signal;HPM_P1;HPM_P2
2022/03/14 00:01:59;;;;;;;67.93;30.20;;;;;;;;;;5033981;28;20021;-65
2022/03/14 00:04:25;;;;;;;61.65;29.02;;;;;;;;;;5041269;28;20021;-63
2022/03/14 00:06:51;;;;;;;60.08;28.17;;;;;;;;;;5041135;28;20102;-64
2022/03/14 00:09:17;;;;;;;59.72;28.15;;;;;;;;;;5049105;28;20037;-64
2022/03/14 00:11:44;;;;;;;54.00;24.48;;;;;;;;;;5028451;28;20593;-63
2022/03/14 00:14:10;;;;;;;51.28;23.55;;;;;;;;;;5028510;28;20037;-64
2022/03/14 00:16:41;;;;;;;49.13;23.15;;;;;;;;;;5029017;28;20025;-64
2022/03/14 00:19:08;;;;;;;41.70;21.38;;;;;;;;;;5028608;28;20017;-63
2022/03/14 00:21:38;;;;;;;50.35;22.73;;;;;;;;;;5029564;28;20520;-64
2022/03/14 00:24:05;;;;;;;40.53;19.00;;;;;;;;;;5030649;28;20025;-64
2022/03/14 00:26:32;;;;;;;33.03;16.73;;;;;;;;;;5028784;28;20109;-64
2022/03/14 00:28:58;;;;;;;41.13;18.58;;;;;;;;;;5028888;28;20025;-64
2022/03/14 00:31:24;;;;;;;33.78;16.33;;;;;;;;;;5028826;28;20492;-64
2022/03/14 06:08:19;;;;;;;52.05;24.85;;;;;;;;;;5172782;23;20517;-62
2022/03/14 06:10:46;;;;;;;50.03;24.50;;;;;;;;;;4973844;28;20081;-62
2022/03/14 06:13:13;;;;;;;48.67;24.40;;;;;;;;;;4955806;28;20047;-62
2022/03/14 06:15:39;;;;;;;50.83;24.40;;;;;;;;;;4973697;28;20038;-62
2022/03/14 06:18:05;;;;;;;47.63;23.88;;;;;;;;;;4973257;28;20114;-64
2022/03/14 06:20:31;;;;;;;52.75;23.30;;;;;;;;;;4973593;28;20019;-64
2022/03/14 06:22:57;;;;;;;50.45;23.20;;;;;;;;;;4973209;28;20034;-63
2022/03/14 06:25:24;;;;;;;46.92;22.02;;;;;;;;;;4973564;28;20031;-63
2022/03/14 06:27:50;;;;;;;51.33;23.05;;;;;;;;;;4973110;28;20098;-63
2022/03/14 06:30:16;;;;;;;48.90;21.92;;;;;;;;;;4973146;28;20023;-67
2022/03/14 06:32:43;;;;;;;52.63;23.48;;;;;;;;;;4973030;28;20073;-64
2022/03/14 06:35:12;;;;;;;46.45;22.42;;;;;;;;;;4972970;28;20827;-64
2022/03/14 06:37:38;;;;;;;51.83;22.60;;;;;;;;;;4972684;28;20074;-63
2022/03/14 06:40:05;;;;;;;46.78;22.13;;;;;;;;;;4972842;28;20019;-64
2022/03/14 06:42:31;;;;;;;47.22;22.13;;;;;;;;;;4972886;28;20027;-63
2022/03/14 06:45:02;;;;;;;48.45;23.48;;;;;;;;;;4973087;28;20034;-63
2022/03/14 06:47:28;;;;;;;49.47;22.45;;;;;;;;;;4972686;28;20019;-63
2022/03/14 06:49:54;;;;;;;47.85;22.98;;;;;;;;;;4972809;28;20035;-63
2022/03/14 06:52:21;;;;;;;50.80;24.02;;;;;;;;;;4971242;28;20162;-62
2022/03/14 06:54:47;;;;;;;52.08;22.73;;;;;;;;;;4972795;28;20487;-63
2022/03/14 06:57:13;;;;;;;45.63;21.55;;;;;;;;;;4972567;28;20395;-63
2022/03/14 06:59:39;;;;;;;46.00;21.40;;;;;;;;;;4972623;28;20157;-63
2022/03/14 07:02:06;;;;;;;45.65;21.52;;;;;;;;;;4972515;28;20471;-63
2022/03/14 07:04:34;;;;;;;38.80;20.15;;;;;;;;;;4972498;28;20101;-63
2022/03/14 07:07:03;;;;;;;43.08;20.23;;;;;;;;;;4972191;28;20039;-64
2022/03/14 07:09:29;;;;;;;42.63;20.05;;;;;;;;;;4972052;28;20070;-63
2022/03/14 07:11:55;;;;;;;45.47;19.17;;;;;;;;;;4972414;28;20041;-64
2022/03/14 07:14:22;;;;;;;35.92;18.30;;;;;;;;;;4972290;28;20398;-65
2022/03/14 07:16:49;;;;;;;39.72;18.25;;;;;;;;;;4972423;28;20041;-63
2022/03/14 07:19:15;;;;;;;36.50;17.50;;;;;;;;;;4972375;28;20033;-63
2022/03/14 07:21:41;;;;;;;34.13;16.33;;;;;;;;;;4972287;28;20049;-64
2022/03/14 07:24:07;;;;;;;37.47;17.75;;;;;;;;;;4972170;28;20542;-67
2022/03/14 07:26:33;;;;;;;41.88;17.92;;;;;;;;;;4972084;28;20042;-68
2022/03/14 07:29:01;;;;;;;39.13;18.63;;;;;;;;;;4971867;28;20034;-64
2022/03/14 07:31:27;;;;;;;35.35;16.33;;;;;;;;;;4971846;28;20023;-67
2022/03/14 07:33:53;;;;;;;39.70;17.48;;;;;;;;;;4971669;28;20043;-66
2022/03/14 07:36:19;;;;;;;37.03;17.67;;;;;;;;;;4971740;28;20054;-63
2022/03/14 07:38:46;;;;;;;39.40;17.80;;;;;;;;;;4971613;28;20590;-63
2022/03/14 07:41:12;;;;;;;31.85;15.05;;;;;;;;;;4971629;28;20470;-63
2022/03/14 07:43:38;;;;;;;34.25;14.70;;;;;;;;;;4971713;28;20027;-63
2022/03/14 07:46:05;;;;;;;31.52;15.55;;;;;;;;;;4971660;28;20546;-65
2022/03/14 07:48:31;;;;;;;32.95;14.38;;;;;;;;;;4971993;28;20483;-63
2022/03/14 07:50:57;;;;;;;31.42;14.98;;;;;;;;;;4971657;28;20395;-63
2022/03/14 07:53:23;;;;;;;33.78;15.13;;;;;;;;;;4970924;28;20039;-63
2022/03/14 07:55:49;;;;;;;29.00;13.45;;;;;;;;;;4962629;28;20030;-64
2022/03/14 07:58:15;;;;;;;26.40;11.43;;;;;;;;;;4969109;28;20042;-63
2022/03/14 08:00:41;;;;;;;24.45;10.65;;;;;;;;;;4960250;28;20436;-66
2022/03/14 08:03:08;;;;;;;27.33;10.25;;;;;;;;;;4951443;28;20034;-63
2022/03/14 08:05:34;;;;;;;24.95;11.02;;;;;;;;;;4953514;28;20059;-64
2022/03/14 08:08:03;;;;;;;18.15;10.15;;;;;;;;;;4970842;28;20130;-64
2022/03/14 08:10:29;;;;;;;26.50;10.32;;;;;;;;;;4956180;28;20106;-66
2022/03/14 08:12:56;;;;;;;19.35;10.43;;;;;;;;;;4962116;28;20039;-64
2022/03/14 08:15:33;;;;;;;20.10;8.98;;;;;;;;;;4964973;28;20069;-62
2022/03/14 08:18:00;;;;;;;21.85;9.75;;;;;;;;;;4970582;28;20146;-62
2022/03/14 08:20:27;;;;;;;17.33;8.88;;;;;;;;;;4955838;28;20053;-62
2022/03/14 08:22:54;;;;;;;17.05;8.52;;;;;;;;;;4958584;28;20070;-62
2022/03/14 08:25:21;;;;;;;20.55;8.70;;;;;;;;;;4960389;28;20031;-62
2022/03/14 08:27:47;;;;;;;18.73;8.77;;;;;;;;;;4960793;28;20361;-65
2022/03/14 08:30:14;;;;;;;16.30;7.75;;;;;;;;;;4959055;28;20106;-63
2022/03/14 08:32:40;;;;;;;16.08;8.48;;;;;;;;;;4960664;28;20039;-63
2022/03/14 08:35:08;;;;;;;16.15;7.82;;;;;;;;;;4960619;28;20027;-61
2022/03/14 08:37:40;;;;;;;12.23;6.45;;;;;;;;;;4965346;28;20023;-64
2022/03/14 08:40:09;;;;;;;18.45;7.60;;;;;;;;;;4959738;28;20041;-63
2022/03/14 08:42:35;;;;;;;15.18;7.45;;;;;;;;;;4961402;28;20066;-64
2022/03/14 08:45:01;;;;;;;15.05;6.85;;;;;;;;;;4959403;28;20135;-62
2022/03/14 08:47:27;;;;;;;13.98;7.18;;;;;;;;;;4958014;28;20029;-63
2022/03/14 08:49:53;;;;;;;15.10;7.22;;;;;;;;;;4961002;28;20368;-63
2022/03/14 08:52:20;;;;;;;13.52;7.40;;;;;;;;;;4959088;28;20024;-62
2022/03/14 08:54:46;;;;;;;13.70;6.80;;;;;;;;;;4960143;28;20089;-63
2022/03/14 08:57:12;;;;;;;14.43;6.63;;;;;;;;;;4960559;28;20027;-63
2022/03/14 08:59:38;;;;;;;17.27;7.35;;;;;;;;;;4958731;28;20661;-63
2022/03/14 09:02:07;;;;;;;11.95;6.25;;;;;;;;;;4971123;28;20058;-64
2022/03/14 09:04:33;;;;;;;14.13;6.45;;;;;;;;;;4967509;28;20027;-63
2022/03/14 09:06:59;;;;;;;12.57;7.13;;;;;;;;;;4967434;28;20027;-63
2022/03/14 09:09:25;;;;;;;16.05;7.03;;;;;;;;;;4966331;28;20082;-63
2022/03/14 09:11:51;;;;;;;19.80;10.02;;;;;;;;;;4951630;29;20046;-64
2022/03/14 09:14:18;;;;;;;17.10;7.00;;;;;;;;;;4955764;28;20035;-63
2022/03/14 09:16:45;;;;;;;13.65;6.55;;;;;;;;;;4955049;28;20624;-62
2022/03/14 09:19:12;;;;;;;13.63;6.10;;;;;;;;;;4959686;28;20476;-63
2022/03/14 09:21:39;;;;;;;14.80;7.18;;;;;;;;;;4964812;28;20038;-64
2022/03/14 09:24:05;;;;;;;12.40;5.97;;;;;;;;;;4966781;28;20043;-64
2022/03/14 09:26:34;;;;;;;11.65;5.78;;;;;;;;;;4962828;28;20436;-64
2022/03/14 09:29:00;;;;;;;12.23;5.88;;;;;;;;;;4946456;28;20019;-62
2022/03/14 09:31:26;;;;;;;11.38;5.88;;;;;;;;;;4965492;28;20150;-65
2022/03/14 09:33:53;;;;;;;11.90;6.85;;;;;;;;;;4965473;28;20118;-63
2022/03/14 09:36:19;;;;;;;20.08;8.65;;;;;;;;;;4964220;28;20019;-64
2022/03/14 09:38:46;;;;;;;14.07;6.20;;;;;;;;;;4966104;28;20633;-63
2022/03/14 09:41:13;;;;;;;13.55;6.50;;;;;;;;;;4964860;28;20059;-63
2022/03/14 09:43:40;;;;;;;10.32;6.22;;;;;;;;;;4962443;28;20028;-62
2022/03/14 09:46:08;;;;;;;12.82;5.85;;;;;;;;;;4963393;28;20073;-63
2022/03/14 09:48:37;;;;;;;11.82;6.40;;;;;;;;;;4965347;28;20526;-64
2022/03/14 09:51:04;;;;;;;15.98;6.63;;;;;;;;;;4962956;28;20391;-62
2022/03/14 09:53:31;;;;;;;13.23;6.20;;;;;;;;;;4946098;28;20043;-63
2022/03/14 09:55:57;;;;;;;12.55;6.30;;;;;;;;;;4973443;28;20023;-62
2022/03/14 09:58:23;;;;;;;13.65;7.05;;;;;;;;;;4975703;28;20027;-63
2022/03/14 10:00:50;;;;;;;12.55;6.43;;;;;;;;;;4962282;28;20023;-63
2022/03/14 10:03:17;;;;;;;11.07;5.90;;;;;;;;;;4963868;28;20542;-63
2022/03/14 10:05:44;;;;;;;11.60;5.97;;;;;;;;;;4960695;28;20118;-62
2022/03/14 10:08:10;;;;;;;11.73;6.13;;;;;;;;;;4959560;28;20396;-63
2022/03/14 10:10:37;;;;;;;12.75;6.40;;;;;;;;;;4961809;28;20107;-63
2022/03/14 10:13:05;;;;;;;16.25;6.70;;;;;;;;;;4964873;28;20130;-64
2022/03/14 10:15:35;;;;;;;13.23;6.57;;;;;;;;;;4967034;28;20484;-64
2022/03/14 10:18:10;;;;;;;12.68;6.90;;;;;;;;;;4962979;28;20037;-62
2022/03/14 10:20:37;;;;;;;12.13;6.38;;;;;;;;;;4967941;28;20118;-63
2022/03/14 10:23:03;;;;;;;13.15;6.72;;;;;;;;;;4959454;28;20820;-64
2022/03/14 10:25:30;;;;;;;13.27;7.10;;;;;;;;;;4960802;28;20059;-63
2022/03/14 10:27:57;;;;;;;12.73;7.03;;;;;;;;;;4966799;28;20031;-64
2022/03/14 10:30:33;;;;;;;12.48;6.22;;;;;;;;;;4973016;28;20110;-62
2022/03/14 10:33:11;;;;;;;13.13;6.95;;;;;;;;;;4972784;28;20023;-63
2022/03/14 10:35:38;;;;;;;12.43;6.75;;;;;;;;;;4972915;28;20481;-64
2022/03/14 10:38:06;;;;;;;13.48;6.85;;;;;;;;;;4972770;28;20042;-63
2022/03/14 10:40:33;;;;;;;14.63;7.55;;;;;;;;;;4972892;28;20035;-64
2022/03/14 10:43:00;;;;;;;12.13;7.07;;;;;;;;;;4972947;28;20031;-64
2022/03/14 10:45:26;;;;;;;12.25;6.78;;;;;;;;;;4972412;28;20478;-64
2022/03/14 10:47:54;;;;;;;12.60;7.03;;;;;;;;;;4972713;28;20034;-63
2022/03/14 10:50:30;;;;;;;9.32;6.05;;;;;;;;;;4954663;28;20031;-63
2022/03/14 10:53:35;;;;;;;11.60;6.45;;;;;;;;;;4972577;28;20720;-63
2022/03/14 10:56:02;;;;;;;14.88;7.32;;;;;;;;;;4875037;29;20041;-64
2022/03/14 10:58:30;;;;;;;11.85;6.93;;;;;;;;;;4875266;29;20100;-63
2022/03/14 11:00:57;;;;;;;12.00;7.00;;;;;;;;;;4874582;29;20049;-63
2022/03/14 11:03:30;;;;;;;11.88;6.60;;;;;;;;;;4875052;29;20036;-63
2022/03/14 11:06:01;;;;;;;15.32;7.53;;;;;;;;;;4874787;29;20037;-62
2022/03/14 11:08:28;;;;;;;9.30;5.07;;;;;;;;;;4874513;29;20128;-63
2022/03/14 11:10:57;;;;;;;9.50;5.80;;;;;;;;;;4874859;29;20513;-62
2022/03/14 11:13:24;;;;;;;10.20;5.43;;;;;;;;;;4874764;29;20132;-63
2022/03/14 11:15:50;;;;;;;14.27;6.63;;;;;;;;;;4874840;29;20037;-61
2022/03/14 11:18:18;;;;;;;9.52;5.72;;;;;;;;;;4874880;29;20627;-62
2022/03/14 11:20:44;;;;;;;9.90;5.97;;;;;;;;;;4875411;29;20049;-61
2022/03/14 11:23:12;;;;;;;11.60;6.03;;;;;;;;;;4874815;29;20469;-62
2022/03/14 11:25:39;;;;;;;9.10;4.68;;;;;;;;;;4878603;29;20033;-61
2022/03/14 11:28:06;;;;;;;8.82;5.15;;;;;;;;;;4948744;29;20031;-62
2022/03/14 11:30:36;;;;;;;11.70;5.32;;;;;;;;;;4956451;28;20439;-62
2022/03/14 11:33:04;;;;;;;13.93;5.80;;;;;;;;;;4975425;28;20038;-62
2022/03/14 11:35:31;;;;;;;12.18;5.60;;;;;;;;;;4973198;28;20085;-63
2022/03/14 11:37:58;;;;;;;8.52;5.07;;;;;;;;;;4974309;28;20464;-63
2022/03/14 11:40:24;;;;;;;13.32;5.53;;;;;;;;;;4954365;28;20078;-62
2022/03/14 11:42:50;;;;;;;8.98;4.78;;;;;;;;;;4971551;28;20115;-62
2022/03/14 11:45:17;;;;;;;10.07;5.38;;;;;;;;;;4971710;28;20038;-62
2022/03/14 11:47:44;;;;;;;10.68;5.32;;;;;;;;;;4971306;28;20023;-62
2022/03/14 11:50:10;;;;;;;11.45;5.47;;;;;;;;;;4971708;28;20110;-61
2022/03/14 11:52:36;;;;;;;9.10;6.07;;;;;;;;;;4970809;28;20018;-63
2022/03/14 11:55:04;;;;;;;9.63;5.65;;;;;;;;;;4974087;28;20030;-61
2022/03/14 11:57:34;;;;;;;10.20;5.85;;;;;;;;;;4975880;28;20136;-64
2022/03/14 12:00:20;;;;;;;12.98;6.07;;;;;;;;;;4974589;28;20038;-63
2022/03/14 12:02:47;;;;;;;10.73;5.47;;;;;;;;;;4973395;28;20434;-62
2022/03/14 12:05:13;;;;;;;8.15;4.78;;;;;;;;;;4971554;28;20030;-62
2022/03/14 12:07:39;;;;;;;11.68;5.60;;;;;;;;;;4970820;28;20054;-62
2022/03/14 12:10:28;;;;;;;9.82;5.32;;;;;;;;;;4973789;28;20070;-63
2022/03/14 12:12:54;;;;;;;10.73;6.15;;;;;;;;;;4874245;29;20045;-65
2022/03/14 12:15:39;;;;;;;9.85;5.50;;;;;;;;;;4873117;29;20405;-63
2022/03/14 12:18:23;;;;;;;10.00;5.65;;;;;;;;;;4873516;29;20460;-63
2022/03/14 12:20:53;;;;;;;13.88;5.63;;;;;;;;;;4858342;29;20033;-64
2022/03/14 12:23:26;;;;;;;11.07;5.85;;;;;;;;;;4873438;29;20061;-65
2022/03/14 12:25:53;;;;;;;10.05;5.18;;;;;;;;;;4873900;29;20119;-65
2022/03/14 12:28:25;;;;;;;9.90;5.38;;;;;;;;;;4873995;29;20029;-63
2022/03/14 12:30:51;;;;;;;11.70;6.00;;;;;;;;;;4873634;29;20046;-65
2022/03/14 12:33:43;;;;;;;11.18;6.28;;;;;;;;;;4873472;29;20045;-63
2022/03/14 12:41:41;;;;;;;10.95;5.82;;;;;;;;;;4976550;23;20058;-64
2022/03/14 12:47:12;;;;;;;11.65;6.10;;;;;;;;;;5203932;23;20141;-65
2022/03/14 12:49:41;;;;;;;10.13;5.63;;;;;;;;;;4952463;28;20449;-65
2022/03/14 12:52:14;;;;;;;12.25;6.05;;;;;;;;;;4974749;28;20042;-65
2022/03/14 12:54:41;;;;;;;11.27;6.65;;;;;;;;;;4974059;28;20363;-65
2022/03/14 12:57:07;;;;;;;9.02;5.82;;;;;;;;;;4956909;28;20031;-65
2022/03/14 13:17:28;;;;;;;11.27;5.38;;;;;;;;;;5032249;23;20165;-63
2022/03/14 13:19:54;;;;;;;10.65;5.88;;;;;;;;;;4993763;28;20034;-64
2022/03/14 13:22:22;;;;;;;12.00;6.30;;;;;;;;;;4993612;28;20424;-63
2022/03/14 13:24:49;;;;;;;9.63;5.90;;;;;;;;;;4993364;28;20031;-63
2022/03/14 13:27:22;;;;;;;11.13;5.32;;;;;;;;;;4993587;28;20030;-63
2022/03/14 13:29:49;;;;;;;12.88;5.13;;;;;;;;;;4993336;28;20050;-65
2022/03/14 13:32:24;;;;;;;10.65;4.75;;;;;;;;;;4993282;28;20030;-62
2022/03/14 13:35:06;;;;;;;8.60;4.70;;;;;;;;;;4993264;28;20030;-64
2022/03/14 13:37:42;;;;;;;8.88;4.50;;;;;;;;;;4992921;28;20027;-63
2022/03/14 13:40:17;;;;;;;9.45;5.28;;;;;;;;;;4991728;28;20118;-61
2022/03/14 13:45:47;;;;;;;10.07;5.60;;;;;;;;;;5435378;23;21437;-64
2022/03/14 13:48:20;;;;;;;12.52;6.15;;;;;;;;;;4972709;28;20124;-64
2022/03/14 13:50:46;;;;;;;9.48;5.47;;;;;;;;;;4973708;28;20391;-62
2022/03/14 13:53:22;;;;;;;11.35;5.25;;;;;;;;;;4973754;28;20058;-64
2022/03/14 13:55:52;;;;;;;12.27;5.45;;;;;;;;;;4973920;28;20055;-64
2022/03/14 13:58:23;;;;;;;10.75;4.85;;;;;;;;;;4973492;28;20027;-63
2022/03/14 14:00:55;;;;;;;9.82;5.00;;;;;;;;;;4973422;28;20037;-63
2022/03/14 14:03:21;;;;;;;;;;;;;;;;;;4973576;28;20062;-63
2022/03/14 14:09:10;;;;;;;10.25;5.10;;;;;;;;;;5266026;23;20464;-63
2022/03/14 14:11:38;;;;;;;10.30;4.55;;;;;;;;;;4992532;28;20026;-63
2022/03/14 14:14:04;;;;;;;8.30;4.95;;;;;;;;;;4973871;28;20050;-65
2022/03/14 14:16:37;;;;;;;7.35;4.40;;;;;;;;;;4990465;28;20034;-65
2022/03/14 14:19:11;;;;;;;9.05;5.30;;;;;;;;;;4992841;28;20401;-61
2022/03/14 14:21:37;;;;;;;10.30;5.63;;;;;;;;;;4992094;28;20154;-65
2022/03/14 14:24:07;;;;;;;12.90;6.72;;;;;;;;;;4991837;28;20038;-63
2022/03/14 14:26:33;;;;;;;9.90;5.70;;;;;;;;;;4992463;28;20026;-67
2022/03/14 14:29:00;;;;;;;10.27;5.55;;;;;;;;;;4992318;28;20026;-65
2022/03/14 14:31:26;;;;;;;11.20;5.85;;;;;;;;;;4991871;28;20049;-61
2022/03/14 14:33:52;;;;;;;12.07;5.30;;;;;;;;;;4992410;28;20045;-64
2022/03/14 14:36:18;;;;;;;10.20;5.15;;;;;;;;;;4992129;28;20025;-65
2022/03/14 14:38:45;;;;;;;9.88;5.22;;;;;;;;;;4991662;28;20034;-61
2022/03/14 14:41:13;;;;;;;11.07;5.55;;;;;;;;;;4991989;28;20154;-63
2022/03/14 14:43:41;;;;;;;13.85;5.70;;;;;;;;;;4992228;28;20382;-61
2022/03/14 14:46:07;;;;;;;20.48;9.40;;;;;;;;;;4991728;28;20140;-64
2022/03/14 14:48:36;;;;;;;11.13;6.10;;;;;;;;;;4991680;28;20140;-64
2022/03/14 14:51:02;;;;;;;11.05;5.97;;;;;;;;;;4992334;28;20030;-64
2022/03/14 14:53:29;;;;;;;12.82;6.53;;;;;;;;;;4992098;28;20490;-70
2022/03/14 14:55:56;;;;;;;15.82;7.07;;;;;;;;;;4991870;28;20031;-63
2022/03/14 14:58:23;;;;;;;10.55;5.60;;;;;;;;;;4991837;28;20156;-64
2022/03/14 15:00:50;;;;;;;10.25;5.60;;;;;;;;;;4991515;28;20026;-64
2022/03/14 15:03:17;;;;;;;10.70;4.90;;;;;;;;;;4991523;28;20053;-62
2022/03/14 15:05:45;;;;;;;9.25;4.90;;;;;;;;;;4991704;28;20018;-62
2022/03/14 15:08:12;;;;;;;7.32;4.63;;;;;;;;;;4989765;28;20070;-63
2022/03/14 15:10:38;;;;;;;10.07;5.25;;;;;;;;;;4972707;28;20031;-62
2022/03/14 15:13:05;;;;;;;9.50;5.47;;;;;;;;;;4973068;28;20469;-65
2022/03/14 15:15:31;;;;;;;9.52;5.68;;;;;;;;;;4972404;28;20038;-62
2022/03/14 15:17:57;;;;;;;10.23;5.60;;;;;;;;;;4972187;28;20027;-62
2022/03/14 15:20:24;;;;;;;11.00;5.22;;;;;;;;;;4973803;28;20583;-60
2022/03/14 15:22:51;;;;;;;8.38;5.22;;;;;;;;;;4973582;28;20033;-62
2022/03/14 15:25:18;;;;;;;12.25;6.07;;;;;;;;;;4972929;28;20411;-61
2022/03/14 15:27:45;;;;;;;11.48;5.82;;;;;;;;;;4972456;28;20070;-63
2022/03/14 15:30:13;;;;;;;15.23;6.65;;;;;;;;;;4972623;28;20023;-65
2022/03/14 15:32:39;;;;;;;14.02;6.72;;;;;;;;;;4973848;28;20034;-62
2022/03/14 15:35:08;;;;;;;15.80;7.38;;;;;;;;;;4961053;28;20034;-65
2022/03/14 15:37:34;;;;;;;10.40;5.90;;;;;;;;;;4959537;28;20034;-61
2022/03/14 15:40:03;;;;;;;10.75;5.50;;;;;;;;;;4975993;28;20152;-64
2022/03/14 15:42:29;;;;;;;10.00;5.20;;;;;;;;;;4972832;28;20498;-63
2022/03/14 15:44:56;;;;;;;13.73;5.80;;;;;;;;;;4974661;28;20038;-65
2022/03/14 15:47:22;;;;;;;14.57;6.97;;;;;;;;;;4958133;28;20035;-64
2022/03/14 15:49:49;;;;;;;14.32;7.60;;;;;;;;;;4973593;28;20493;-66
2022/03/14 15:52:19;;;;;;;14.55;7.97;;;;;;;;;;4956300;28;20091;-66
2022/03/14 15:54:46;;;;;;;16.65;7.95;;;;;;;;;;4974383;28;20039;-62
2022/03/14 15:57:12;;;;;;;15.88;8.55;;;;;;;;;;4971350;28;20063;-62
2022/03/14 15:59:38;;;;;;;16.17;8.25;;;;;;;;;;4971646;28;20038;-61
2022/03/14 16:02:04;;;;;;;17.73;8.35;;;;;;;;;;4972023;28;20035;-61
2022/03/14 16:04:31;;;;;;;16.77;8.15;;;;;;;;;;4971828;28;20386;-62
2022/03/14 16:06:57;;;;;;;18.13;8.73;;;;;;;;;;4971419;28;20041;-63
2022/03/14 16:09:23;;;;;;;21.80;8.82;;;;;;;;;;4971812;28;20494;-64
2022/03/14 16:11:49;;;;;;;21.00;11.02;;;;;;;;;;4953118;28;20043;-63
2022/03/14 16:14:15;;;;;;;22.27;11.05;;;;;;;;;;4970513;28;20129;-63
2022/03/14 16:16:41;;;;;;;23.17;9.55;;;;;;;;;;4971144;28;20026;-63
2022/03/14 16:19:09;;;;;;;21.58;9.52;;;;;;;;;;4971445;28;20467;-63
2022/03/14 16:21:35;;;;;;;18.92;9.65;;;;;;;;;;4971441;28;20034;-61
2022/03/14 16:24:03;;;;;;;22.50;10.63;;;;;;;;;;4971615;28;20442;-61
2022/03/14 16:26:30;;;;;;;19.25;9.70;;;;;;;;;;4973240;28;20023;-62
2022/03/14 16:28:57;;;;;;;18.10;9.15;;;;;;;;;;4974149;28;20054;-62
2022/03/14 16:31:23;;;;;;;21.80;10.00;;;;;;;;;;4971457;28;20345;-62
2022/03/14 16:33:49;;;;;;;25.38;11.10;;;;;;;;;;4971420;28;20485;-63
2022/03/14 16:36:15;;;;;;;28.88;12.30;;;;;;;;;;4970969;28;20114;-62
2022/03/14 16:38:41;;;;;;;32.15;14.60;;;;;;;;;;4971172;28;20467;-62
2022/03/14 16:41:10;;;;;;;34.72;15.65;;;;;;;;;;4971118;28;20059;-62
2022/03/14 16:43:36;;;;;;;40.72;18.15;;;;;;;;;;4970991;28;20027;-61
2022/03/14 16:46:03;;;;;;;44.20;19.90;;;;;;;;;;4971261;28;20085;-59
2022/03/14 16:48:29;;;;;;;49.35;21.30;;;;;;;;;;4971079;28;20030;-63
2022/03/14 16:50:55;;;;;;;52.22;23.65;;;;;;;;;;4971212;28;20027;-61
2022/03/14 16:53:22;;;;;;;59.58;25.88;;;;;;;;;;4970991;28;20042;-61
2022/03/14 16:55:48;;;;;;;66.32;27.35;;;;;;;;;;4971055;28;20031;-63
2022/03/14 16:58:14;;;;;;;70.45;29.83;;;;;;;;;;4971357;28;20506;-62
2022/03/14 17:00:42;;;;;;;71.38;32.60;;;;;;;;;;4971130;28;20034;-65
2022/03/14 17:03:09;;;;;;;76.72;33.97;;;;;;;;;;4970778;28;20030;-63
2022/03/14 17:05:37;;;;;;;91.57;37.78;;;;;;;;;;4970732;28;20023;-62
2022/03/14 17:08:04;;;;;;;84.45;36.47;;;;;;;;;;4970407;28;20255;-63
2022/03/14 17:10:36;;;;;;;81.90;36.65;;;;;;;;;;4970836;28;20030;-62
2022/03/14 17:13:02;;;;;;;;;;;;;;;;;;4970930;28;20508;-63
2022/03/14 17:15:30;;;;;;;81.90;35.63;;;;;;;;;;4970840;28;20294;-63
2022/03/14 17:17:57;;;;;;;78.60;35.22;;;;;;;;;;4970858;28;20422;-63
2022/03/14 17:20:23;;;;;;;74.50;33.38;;;;;;;;;;4970801;28;20038;-62
2022/03/14 17:22:51;;;;;;;78.82;34.13;;;;;;;;;;4970859;28;20212;-63
2022/03/14 17:25:17;;;;;;;76.72;35.50;;;;;;;;;;4970673;28;20022;-63
2022/03/14 17:27:43;;;;;;;84.95;41.80;;;;;;;;;;4970733;28;20027;-62
2022/03/14 17:30:09;;;;;;;92.63;42.80;;;;;;;;;;4970789;28;20104;-62
2022/03/14 17:32:36;;;;;;;89.45;41.67;;;;;;;;;;4970326;28;20503;-62
2022/03/14 17:35:05;;;;;;;88.25;40.08;;;;;;;;;;4970658;28;20431;-62
2022/03/14 17:37:33;;;;;;;89.63;41.38;;;;;;;;;;4972328;28;20050;-62
2022/03/14 17:39:59;;;;;;;80.13;38.40;;;;;;;;;;4974034;28;20037;-62
2022/03/14 17:42:25;;;;;;;84.63;39.42;;;;;;;;;;4973927;28;20026;-61
2022/03/14 17:44:52;;;;;;;84.03;37.58;;;;;;;;;;4973846;28;20486;-62
2022/03/14 17:47:18;;;;;;;85.75;39.88;;;;;;;;;;4973756;28;20086;-62
2022/03/14 17:49:44;;;;;;;93.28;41.22;;;;;;;;;;4973729;28;20035;-62
2022/03/14 17:52:10;;;;;;;99.63;45.08;;;;;;;;;;4955969;28;20038;-61
2022/03/14 17:54:36;;;;;;;91.25;43.03;;;;;;;;;;4973537;28;20101;-61
2022/03/14 17:57:02;;;;;;;98.45;44.22;;;;;;;;;;4955667;28;20038;-62
2022/03/14 17:59:30;;;;;;;103.03;48.72;;;;;;;;;;4981250;28;20038;-63
2022/03/14 18:01:56;;;;;;;110.55;46.75;;;;;;;;;;4978862;28;20068;-62
2022/03/14 18:04:22;;;;;;;99.72;45.60;;;;;;;;;;4992570;28;20029;-61
2022/03/14 18:06:48;;;;;;;97.72;44.88;;;;;;;;;;4985518;28;20164;-61
2022/03/14 18:09:15;;;;;;;106.40;43.80;;;;;;;;;;4979844;28;20046;-62
2022/03/14 18:11:41;;;;;;;80.75;34.90;;;;;;;;;;4982589;28;20069;-63
2022/03/14 18:14:08;;;;;;;83.00;36.05;;;;;;;;;;4982332;28;20445;-62
2022/03/14 18:16:34;;;;;;;81.22;38.35;;;;;;;;;;4977948;28;20093;-64
2022/03/14 18:19:00;;;;;;;104.38;46.83;;;;;;;;;;4992813;28;20041;-63
2022/03/14 18:21:27;;;;;;;104.57;46.08;;;;;;;;;;4990225;28;20061;-64
2022/03/14 18:23:55;;;;;;;108.35;49.00;;;;;;;;;;4974312;28;20031;-62
2022/03/14 18:26:21;;;;;;;103.35;44.40;;;;;;;;;;4954983;28;20403;-62
2022/03/14 18:28:47;;;;;;;80.97;36.10;;;;;;;;;;4972972;28;20042;-62
2022/03/14 18:31:13;;;;;;;130.07;57.22;;;;;;;;;;4973001;28;20027;-62
2022/03/14 18:33:45;;;;;;;122.00;49.33;;;;;;;;;;4972970;28;20035;-63
2022/03/14 18:36:11;;;;;;;113.60;47.28;;;;;;;;;;4973125;28;20081;-61
2022/03/14 18:38:37;;;;;;;108.75;49.53;;;;;;;;;;4972962;28;20061;-61
2022/03/14 18:41:03;;;;;;;112.65;49.80;;;;;;;;;;4972925;28;20019;-62
2022/03/14 18:43:29;;;;;;;102.68;45.58;;;;;;;;;;4972778;28;20047;-61
2022/03/14 18:45:55;;;;;;;91.07;37.30;;;;;;;;;;4972188;28;20034;-62
2022/03/14 18:48:21;;;;;;;77.07;34.50;;;;;;;;;;4972701;28;20023;-61
2022/03/14 18:50:47;;;;;;;81.20;36.97;;;;;;;;;;4972755;28;20082;-61
2022/03/14 18:53:14;;;;;;;76.95;34.70;;;;;;;;;;4972606;28;20121;-61
2022/03/14 18:55:40;;;;;;;73.00;31.83;;;;;;;;;;4972774;28;20030;-61
2022/03/14 18:58:06;;;;;;;76.55;33.58;;;;;;;;;;4972421;28;20082;-61
2022/03/14 19:00:32;;;;;;;80.90;36.25;;;;;;;;;;4972511;28;20394;-61
2022/03/14 19:02:59;;;;;;;82.65;37.20;;;;;;;;;;4972550;28;20027;-62
2022/03/14 19:05:27;;;;;;;85.70;37.88;;;;;;;;;;4972532;28;20133;-63
2022/03/14 19:07:53;;;;;;;83.93;39.53;;;;;;;;;;4972356;28;20515;-63
2022/03/14 19:10:19;;;;;;;92.55;39.30;;;;;;;;;;4972278;28;20109;-62
2022/03/14 19:12:45;;;;;;;90.70;40.65;;;;;;;;;;4972123;28;20023;-62
2022/03/14 19:15:13;;;;;;;90.45;40.60;;;;;;;;;;4972019;28;20037;-63
2022/03/14 19:17:39;;;;;;;97.05;41.22;;;;;;;;;;4972137;28;20360;-63
2022/03/14 19:20:05;;;;;;;95.65;41.70;;;;;;;;;;4971949;28;20144;-63
2022/03/14 19:22:31;;;;;;;93.80;41.83;;;;;;;;;;4971956;28;20019;-62
2022/03/14 19:24:59;;;;;;;86.78;39.10;;;;;;;;;;4971824;28;20073;-62
2022/03/14 19:27:26;;;;;;;78.68;37.25;;;;;;;;;;4971739;28;20026;-62
2022/03/14 19:29:52;;;;;;;83.95;39.08;;;;;;;;;;4971716;28;20018;-62
2022/03/14 19:32:18;;;;;;;74.03;36.40;;;;;;;;;;4971742;28;20035;-63
2022/03/14 19:34:45;;;;;;;75.10;36.10;;;;;;;;;;4972015;28;20047;-62
2022/03/14 19:37:11;;;;;;;76.93;37.10;;;;;;;;;;4971913;28;20046;-62
2022/03/14 19:39:38;;;;;;;79.70;34.60;;;;;;;;;;4971708;28;20045;-62
2022/03/14 19:42:06;;;;;;;73.25;34.90;;;;;;;;;;4971749;28;20023;-62
2022/03/14 19:44:32;;;;;;;78.50;36.00;;;;;;;;;;4971592;28;20031;-62
2022/03/14 19:46:58;;;;;;;74.28;34.42;;;;;;;;;;4971507;28;20029;-62
2022/03/14 19:49:24;;;;;;;73.65;34.88;;;;;;;;;;4971862;28;20045;-62
2022/03/14 19:51:50;;;;;;;71.40;35.35;;;;;;;;;;4954073;28;20038;-62
2022/03/14 19:54:18;;;;;;;77.88;36.08;;;;;;;;;;4971326;28;20039;-62
2022/03/14 19:56:44;;;;;;;73.30;33.97;;;;;;;;;;4971548;28;20061;-63
2022/03/14 19:59:13;;;;;;;65.30;32.38;;;;;;;;;;4971154;28;20037;-62
2022/03/14 20:01:39;;;;;;;74.65;33.13;;;;;;;;;;4971538;28;20058;-63
2022/03/14 20:04:05;;;;;;;73.40;31.83;;;;;;;;;;4971507;28;20029;-62
2022/03/14 20:06:32;;;;;;;66.07;31.33;;;;;;;;;;4971650;28;20033;-62
2022/03/14 20:08:58;;;;;;;71.30;31.70;;;;;;;;;;4971133;28;20066;-62
2022/03/14 20:11:26;;;;;;;68.30;33.90;;;;;;;;;;4971615;28;20031;-62
2022/03/14 20:13:54;;;;;;;66.75;32.90;;;;;;;;;;4971014;28;20114;-62
2022/03/14 20:16:21;;;;;;;71.30;32.97;;;;;;;;;;4971006;28;20023;-62
2022/03/14 20:18:47;;;;;;;67.53;33.13;;;;;;;;;;4971300;28;20323;-62
2022/03/14 20:21:13;;;;;;;62.83;30.77;;;;;;;;;;4971397;28;20034;-62
2022/03/14 20:23:39;;;;;;;69.97;29.35;;;;;;;;;;4971192;28;20109;-63
2022/03/14 20:26:06;;;;;;;63.40;28.10;;;;;;;;;;4971258;28;20129;-63
2022/03/14 20:28:32;;;;;;;55.92;26.85;;;;;;;;;;4965867;28;20039;-64
2022/03/14 20:31:00;;;;;;;60.47;28.50;;;;;;;;;;4953608;28;20031;-62
2022/03/14 20:33:26;;;;;;;62.15;27.83;;;;;;;;;;4960491;28;20071;-61
2022/03/14 20:35:53;;;;;;;60.92;29.52;;;;;;;;;;4951594;29;20447;-62